Methodist Memorial Home, Indiana
Current Conditions -  °F | °C
As of 10:55 AM on Friday 28 Nov 2014 (Local Time) from KHHG Reporting Station
Overcast Overcast  
Wind Chill: 17°   Ceiling: 7000
Heat Index: 25°   Visibility: 10mi
Dew Point: 18°   Wind: 7mph
Humidity: 75%   Direction: 200°SSW
Pressure: 30.32"   Gusts: NA
Location:  40.6897°N, 85.3916°W
Report Text: KHHG 281555Z AUTO 20006KT 10SM SCT060 OVC070 M04/M08 A3032 RMK AO2 T10391077
Loading
Personal Weather Stations






























Interactive Weather Map New forecast layout! Learn more

10-Day Weather Forecast

Advertisements
Track Severe Weather on mobile